Crystal Springs, North Dakota
Current Conditions -  °F | °C
As of 3:56 AM on Tuesday 21 Oct 2014 (Local Time) from KJMS Reporting Station
Clear Clear  
Wind Chill: 41°   Ceiling: Unl
Heat Index: 46°   Visibility: 10mi
Dew Point: 38°   Wind: 12mph
Humidity: 73%   Direction: 140°SE
Pressure: 29.98"   Gusts: NA
Location:  46.8928°N, 99.3208°W
Report Text: KJMS 210856Z AUTO 14010KT 10SM CLR 08/03 A2998 RMK AO2 SLP155 T00780033 58003
Loading
Personal Weather Stations






























Interactive Weather Map
Tropical Storm Tracking
New forecast layout! Learn more

10-Day Weather Forecast

Advertisements
Track Severe Weather on mobile